Time;durP1;ratioP1;P1;durP2;ratioP2;P2;SDS_P1;SDS_P2;PMS_P1;PMS_P2;Temp;Humidity;BMP_temperature;BMP_pressure;BME280_temperature;BME280_humidity;BME280_pressure;Samples;Min_cycle;Max_cycle;Signal;HPM_P1;HPM_P2
2022/04/21 00:01:27;;;;;;;107.07;52.70;;;8.80;99.90;;;;;;5057489;28;20271;-76
2022/04/21 00:04:16;;;;;;;118.60;52.90;;;8.80;99.90;;;;;;5042614;28;20237;-76
2022/04/21 00:07:05;;;;;;;128.40;52.50;;;8.80;99.90;;;;;;5057990;28;20276;-76
2022/04/21 00:09:53;;;;;;;140.53;53.40;;;8.70;99.90;;;;;;5045918;28;20221;-77
2022/04/21 00:12:42;;;;;;;120.97;51.77;;;8.80;99.90;;;;;;5056291;28;20230;-76
2022/04/21 00:15:32;;;;;;;109.17;50.07;;;8.80;99.90;;;;;;5059825;28;20351;-77
2022/04/21 00:18:21;;;;;;;118.70;52.00;;;8.80;99.90;;;;;;5058961;28;20216;-76
2022/04/21 00:21:09;;;;;;;115.23;53.50;;;8.90;99.90;;;;;;5063884;28;20229;-76
2022/04/21 00:23:57;;;;;;;121.20;53.03;;;8.90;99.90;;;;;;5067590;28;20242;-76
2022/04/21 00:26:46;;;;;;;125.27;50.23;;;8.90;99.90;;;;;;5053195;28;20249;-76
2022/04/21 00:29:35;;;;;;;117.97;50.53;;;8.80;99.90;;;;;;5062419;28;20264;-76
2022/04/21 00:32:25;;;;;;;122.80;50.50;;;8.80;99.90;;;;;;5058050;28;20841;-76
2022/04/21 00:35:17;;;;;;;127.00;50.90;;;8.80;99.90;;;;;;5059906;28;20234;-76
2022/04/21 00:38:06;;;;;;;130.93;47.07;;;8.80;99.90;;;;;;5060971;28;20230;-74
2022/04/21 00:40:55;;;;;;;142.73;46.77;;;8.80;99.90;;;;;;5041351;28;20281;-75
2022/04/21 00:43:44;;;;;;;111.90;44.07;;;8.90;99.90;;;;;;5040533;28;20221;-75
2022/04/21 00:46:33;;;;;;;115.87;43.67;;;8.80;99.90;;;;;;5058299;28;20228;-74
2022/04/21 00:49:24;;;;;;;113.77;42.50;;;9.00;99.90;;;;;;5042025;28;20226;-75
2022/04/21 00:52:15;;;;;;;123.53;43.03;;;9.00;99.90;;;;;;5042813;28;20221;-76
2022/04/21 00:55:05;;;;;;;111.43;41.37;;;9.00;99.90;;;;;;5040570;28;20243;-74
2022/04/21 00:57:55;;;;;;;95.73;38.77;;;9.00;99.90;;;;;;5048257;28;20215;-75
2022/04/21 01:00:44;;;;;;;103.33;37.80;;;9.00;99.90;;;;;;5038710;28;20931;-75
2022/04/21 01:03:32;;;;;;;93.20;38.03;;;8.90;99.90;;;;;;5042868;28;20210;-75
2022/04/21 01:06:22;;;;;;;99.33;39.37;;;9.00;99.90;;;;;;5055994;28;20735;-75
2022/04/21 01:09:11;;;;;;;102.10;39.03;;;9.00;99.90;;;;;;5039447;28;20223;-75
2022/04/21 01:12:00;;;;;;;107.47;38.57;;;9.00;99.90;;;;;;5043614;28;20228;-76
2022/04/21 01:14:48;;;;;;;154.13;40.23;;;9.00;99.90;;;;;;5044005;28;20244;-76
2022/04/21 01:17:38;;;;;;;126.43;41.20;;;9.00;99.90;;;;;;5048934;28;20230;-75
2022/04/21 01:20:28;;;;;;;100.67;38.40;;;8.90;99.90;;;;;;5056355;28;20232;-75
2022/04/21 01:23:17;;;;;;;111.70;39.67;;;9.00;99.90;;;;;;5056586;28;20228;-75
2022/04/21 01:26:06;;;;;;;126.43;39.43;;;9.00;99.90;;;;;;5056242;28;20217;-75
2022/04/21 01:28:56;;;;;;;137.83;40.80;;;9.10;99.90;;;;;;5060938;28;20220;-75
2022/04/21 01:31:44;;;;;;;114.53;38.00;;;9.00;99.90;;;;;;5055871;28;20226;-77
2022/04/21 01:34:33;;;;;;;104.30;37.77;;;9.10;99.90;;;;;;5060226;28;20220;-74
2022/04/21 01:43:37;;;;;;;105.70;38.40;;;9.00;99.90;;;;;;5045547;28;20692;-75
2022/04/21 01:46:26;;;;;;;161.20;41.90;;;9.10;99.90;;;;;;5056671;28;20286;-75
2022/04/21 01:49:14;;;;;;;108.50;39.70;;;9.10;99.90;;;;;;5057717;28;20218;-75
2022/04/21 01:52:03;;;;;;;106.23;37.17;;;9.10;99.90;;;;;;5057625;28;20222;-75
2022/04/21 01:54:53;;;;;;;128.20;39.00;;;9.10;99.90;;;;;;5045943;28;20224;-75
2022/04/21 01:57:42;;;;;;;115.80;38.43;;;9.00;99.90;;;;;;5041476;28;20226;-75
2022/04/21 02:00:31;;;;;;;93.13;36.43;;;9.10;99.90;;;;;;5050560;28;20225;-75
2022/04/21 02:03:20;;;;;;;101.23;37.17;;;9.10;99.90;;;;;;5045583;28;20231;-76
2022/04/21 02:06:08;;;;;;;103.50;35.43;;;9.10;99.90;;;;;;5044456;28;20699;-74
2022/04/21 02:08:57;;;;;;;78.07;34.23;;;9.20;99.90;;;;;;5063204;28;20226;-74
2022/04/21 02:11:48;;;;;;;73.10;31.97;;;9.20;99.90;;;;;;5046331;28;20219;-75
2022/04/21 02:14:37;;;;;;;69.03;31.50;;;9.30;99.90;;;;;;5059760;28;20306;-74
2022/04/21 02:17:26;;;;;;;60.93;27.97;;;9.30;99.90;;;;;;5059983;28;20227;-74
2022/04/21 02:20:16;;;;;;;64.60;29.17;;;9.30;99.90;;;;;;5064540;28;20231;-75
2022/04/21 02:23:05;;;;;;;67.63;29.23;;;9.40;99.90;;;;;;5055541;28;20223;-72
2022/04/21 02:25:53;;;;;;;48.77;25.60;;;9.40;99.90;;;;;;5063799;28;20231;-74
2022/04/21 02:28:43;;;;;;;50.13;25.87;;;9.30;99.90;;;;;;5050331;28;20234;-74
2022/04/21 02:31:32;;;;;;;50.57;24.70;;;9.30;99.90;;;;;;5061507;28;20559;-75
2022/04/21 02:34:21;;;;;;;44.53;22.47;;;9.30;99.90;;;;;;5058574;28;20394;-74
2022/04/21 02:37:10;;;;;;;41.50;21.80;;;9.30;99.90;;;;;;5062172;28;20230;-74
2022/04/21 02:39:58;;;;;;;36.90;21.10;;;9.30;99.90;;;;;;5057964;28;20231;-73
2022/04/21 02:42:48;;;;;;;44.60;21.67;;;9.30;99.90;;;;;;5062459;28;20249;-75
2022/04/21 02:45:39;;;;;;;40.43;21.73;;;9.20;99.90;;;;;;5049694;28;20230;-73
2022/04/21 02:48:27;;;;;;;40.77;20.77;;;9.20;99.90;;;;;;5045996;28;20859;-74
2022/04/21 02:51:16;;;;;;;38.00;20.40;;;9.30;99.90;;;;;;5057075;28;20250;-74
2022/04/21 02:57:24;;;;;;;30.17;19.17;;;9.40;99.90;;;;;;5061763;28;21144;-74
2022/04/21 03:00:14;;;;;;;32.07;18.07;;;9.40;99.90;;;;;;5058590;28;20602;-75
2022/04/21 03:03:05;;;;;;;37.57;20.30;;;9.40;99.90;;;;;;5058921;28;20725;-73
2022/04/21 03:05:54;;;;;;;34.50;20.47;;;9.30;99.90;;;;;;5044945;28;20227;-75
2022/04/21 03:08:43;;;;;;;32.60;19.40;;;9.30;99.90;;;;;;5049807;28;21124;-74
2022/04/21 03:11:32;;;;;;;27.90;17.37;;;9.40;99.90;;;;;;5061212;28;20254;-75
2022/04/21 03:14:20;;;;;;;26.43;16.43;;;9.40;99.90;;;;;;5045477;28;20932;-75
2022/04/21 03:17:10;;;;;;;26.40;16.43;;;9.40;99.90;;;;;;5061604;28;20242;-75
2022/04/21 03:20:00;;;;;;;25.00;16.23;;;9.30;99.90;;;;;;5058971;28;20224;-75
2022/04/21 03:25:55;;;;;;;25.95;15.77;;;9.20;99.90;;;;;;5061219;28;20231;-74
2022/04/21 03:28:43;;;;;;;25.90;15.25;;;9.30;99.90;;;;;;5042567;28;20219;-74
2022/04/21 03:31:32;;;;;;;21.83;14.37;;;9.40;99.90;;;;;;5062712;28;20666;-74
2022/04/21 03:34:21;;;;;;;21.90;14.13;;;9.30;99.90;;;;;;5060916;28;20228;-74
2022/04/21 03:37:13;;;;;;;20.63;14.30;;;9.30;99.90;;;;;;5060893;28;20247;-74
2022/04/21 03:40:01;;;;;;;23.23;14.67;;;9.20;99.90;;;;;;5056691;28;20215;-73
2022/04/21 03:42:50;;;;;;;22.80;14.63;;;9.20;99.90;;;;;;5064561;28;20227;-73
2022/04/21 03:45:39;;;;;;;22.37;15.33;;;9.20;99.90;;;;;;5061452;28;20545;-73
2022/04/21 03:48:29;;;;;;;22.47;15.27;;;9.20;99.90;;;;;;5057448;28;20235;-74
2022/04/21 03:51:17;;;;;;;24.27;16.27;;;9.20;99.90;;;;;;5060423;28;20224;-73
2022/04/21 03:54:10;;;;;;;25.90;16.60;;;9.10;99.90;;;;;;5045731;28;20215;-76
2022/04/21 03:56:59;;;;;;;22.90;15.90;;;9.10;99.90;;;;;;5043115;28;20225;-75
2022/04/21 03:59:48;;;;;;;25.23;17.80;;;9.10;99.90;;;;;;5060921;28;20973;-76
2022/04/21 04:02:37;;;;;;;22.90;16.33;;;9.10;99.90;;;;;;5039965;28;20222;-81
2022/04/21 04:05:26;;;;;;;25.43;17.97;;;9.10;99.90;;;;;;5060933;28;20229;-80
2022/04/21 04:11:25;;;;;;;25.53;17.23;;;9.10;99.90;;;;;;5040029;28;20232;-80
2022/04/21 04:14:13;;;;;;;24.83;17.43;;;9.10;99.90;;;;;;5059122;28;20223;-79
2022/04/21 04:17:02;;;;;;;26.87;16.43;;;9.20;99.90;;;;;;5063941;28;20302;-79
2022/04/21 04:19:51;;;;;;;24.17;17.33;;;9.20;99.90;;;;;;5063512;28;20225;-80
2022/04/21 04:22:40;;;;;;;24.53;17.90;;;9.10;99.90;;;;;;5064930;28;20228;-79
2022/04/21 04:25:29;;;;;;;24.43;17.37;;;9.10;99.90;;;;;;5052149;28;20231;-80
2022/04/21 04:28:19;;;;;;;22.63;16.60;;;9.10;99.90;;;;;;5059929;28;20230;-80
2022/04/21 04:31:08;;;;;;;23.77;16.50;;;9.10;99.90;;;;;;5061049;28;20226;-80
2022/04/21 04:33:56;;;;;;;21.77;15.80;;;9.00;99.90;;;;;;5064265;28;20285;-80
2022/04/21 04:36:50;;;;;;;21.00;15.57;;;9.00;99.90;;;;;;5063038;28;20229;-80
2022/04/21 04:39:39;;;;;;;19.97;14.80;;;8.90;99.90;;;;;;5065348;28;20235;-80
2022/04/21 04:42:28;;;;;;;19.33;14.70;;;9.00;99.90;;;;;;5062281;28;20223;-79
2022/04/21 04:48:25;;;;;;;20.37;14.73;;;9.00;99.90;;;;;;5059719;28;20707;-77
2022/04/21 04:51:13;;;;;;;20.30;14.80;;;9.00;99.90;;;;;;5047062;28;20224;-79
2022/04/21 04:54:06;;;;;;;17.63;13.73;;;9.10;99.90;;;;;;5063847;28;20845;-78
2022/04/21 04:56:55;;;;;;;19.67;14.10;;;9.00;99.90;;;;;;5060497;28;20271;-77
2022/04/21 04:59:44;;;;;;;24.77;15.83;;;9.00;99.90;;;;;;5063198;28;20229;-77
2022/04/21 05:02:34;;;;;;;18.57;13.47;;;9.00;99.90;;;;;;5056355;28;20350;-78
2022/04/21 05:05:23;;;;;;;18.30;12.30;;;9.00;99.90;;;;;;5059258;28;20303;-75
2022/04/21 05:08:12;;;;;;;20.13;13.50;;;9.00;99.90;;;;;;5041824;28;20223;-74
2022/04/21 05:11:01;;;;;;;20.80;13.77;;;9.00;99.90;;;;;;5060161;28;20223;-75
2022/04/21 05:13:50;;;;;;;15.50;11.93;;;9.10;99.90;;;;;;5041798;28;20226;-74
2022/04/21 05:16:39;;;;;;;15.67;12.73;;;8.90;99.90;;;;;;5042679;28;20230;-75
2022/04/21 05:19:30;;;;;;;17.17;13.50;;;8.90;99.90;;;;;;5060829;28;20231;-74
2022/04/21 05:22:24;;;;;;;19.97;13.03;;;8.90;99.90;;;;;;5045837;28;20318;-75
2022/04/21 05:25:13;;;;;;;20.07;13.13;;;8.90;99.90;;;;;;5051607;28;20590;-73
2022/04/21 05:28:02;;;;;;;21.30;13.40;;;8.90;99.90;;;;;;5062081;28;20775;-76
2022/04/21 05:30:58;;;;;;;16.97;13.07;;;8.90;99.90;;;;;;5055181;28;20260;-75
2022/04/21 05:33:48;;;;;;;19.07;12.03;;;9.00;99.90;;;;;;5057521;28;20706;-77
2022/04/21 05:36:39;;;;;;;18.60;12.50;;;9.00;99.90;;;;;;5054703;28;20732;-75
2022/04/21 05:39:28;;;;;;;16.20;12.67;;;8.90;99.90;;;;;;5037120;28;21052;-76
2022/04/21 05:42:23;;;;;;;17.10;13.67;;;9.00;99.90;;;;;;5045621;28;20271;-76
2022/04/21 05:45:13;;;;;;;17.17;13.10;;;9.10;99.90;;;;;;5060179;28;20252;-75
2022/04/21 05:48:03;;;;;;;15.53;12.67;;;9.10;99.90;;;;;;5042751;28;20229;-75
2022/04/21 05:50:53;;;;;;;19.67;13.80;;;9.10;99.90;;;;;;5058161;28;20767;-75
2022/04/21 05:53:48;;;;;;;18.33;13.93;;;9.10;99.90;;;;;;5045323;28;21009;-76
2022/04/21 05:56:38;;;;;;;17.67;12.87;;;9.20;99.90;;;;;;5060184;28;20750;-75
2022/04/21 05:59:26;;;;;;;17.77;12.47;;;9.10;99.90;;;;;;5058931;28;20228;-76
2022/04/21 06:02:15;;;;;;;16.93;12.57;;;9.00;99.90;;;;;;5056301;28;20645;-76
2022/04/21 06:05:06;;;;;;;19.10;13.30;;;8.90;99.90;;;;;;5060990;28;20222;-76
2022/04/21 06:07:55;;;;;;;17.73;12.80;;;9.00;99.90;;;;;;5061642;28;20229;-76
2022/04/21 06:10:45;;;;;;;15.77;11.97;;;9.10;99.90;;;;;;5060478;28;20704;-76
2022/04/21 06:13:34;;;;;;;16.33;12.23;;;9.10;99.90;;;;;;5060547;28;20227;-75
2022/04/21 06:16:23;;;;;;;18.47;13.07;;;9.20;99.90;;;;;;5072828;28;20234;-75
2022/04/21 06:19:12;;;;;;;15.87;11.83;;;9.20;99.90;;;;;;5060402;28;20384;-76
2022/04/21 06:22:00;;;;;;;18.50;13.37;;;9.20;99.90;;;;;;5057663;28;20361;-76
2022/04/21 06:24:49;;;;;;;17.10;11.97;;;9.30;99.90;;;;;;5061687;28;20731;-77
2022/04/21 06:27:40;;;;;;;16.50;12.63;;;9.20;99.90;;;;;;5043353;28;20259;-78
2022/04/21 06:30:29;;;;;;;17.50;12.80;;;9.30;99.90;;;;;;5047141;28;20226;-78
2022/04/21 06:33:18;;;;;;;16.37;12.23;;;9.30;99.90;;;;;;5062405;28;20256;-78
2022/04/21 06:36:07;;;;;;;16.00;13.00;;;9.40;99.90;;;;;;5058587;28;20220;-77
2022/04/21 06:38:56;;;;;;;18.23;14.23;;;9.40;99.90;;;;;;5065237;28;20348;-78
2022/04/21 06:41:45;;;;;;;16.80;13.10;;;9.40;99.90;;;;;;5055187;28;20235;-78
2022/04/21 06:48:04;;;;;;;20.00;13.37;;;9.50;99.90;;;;;;5059492;28;20230;-79
2022/04/21 06:50:55;;;;;;;17.37;13.53;;;9.50;99.90;;;;;;5062710;28;20227;-78
2022/04/21 06:53:44;;;;;;;17.50;13.73;;;9.60;99.90;;;;;;5063802;28;20231;-77
2022/04/21 06:56:33;;;;;;;17.98;13.60;;;9.70;99.90;;;;;;5049300;28;20227;-77
2022/04/21 06:59:22;;;;;;;20.27;14.13;;;9.60;99.90;;;;;;5061558;28;20273;-78
2022/04/21 07:02:13;;;;;;;16.70;13.17;;;9.60;99.90;;;;;;5072956;28;20222;-77
2022/04/21 07:05:04;;;;;;;17.87;14.30;;;9.60;99.90;;;;;;5056595;28;20227;-79
2022/04/21 07:07:53;;;;;;;17.05;13.20;;;9.70;99.90;;;;;;5077519;28;20430;-88
2022/04/21 07:10:42;;;;;;;16.83;13.35;;;9.70;99.90;;;;;;5082964;28;20245;-89
2022/04/21 07:13:32;;;;;;;16.70;13.10;;;9.70;99.90;;;;;;5087538;28;20223;-89
2022/04/21 07:16:21;;;;;;;16.70;11.60;;;9.80;99.90;;;;;;5074666;28;20231;-89
2022/04/21 07:19:11;;;;;;;17.60;13.50;;;9.60;99.90;;;;;;5089106;28;20696;-89
2022/04/21 07:22:00;;;;;;;16.13;12.82;;;9.80;99.90;;;;;;5071996;28;20227;-90
2022/04/21 07:24:49;;;;;;;18.80;12.23;;;9.80;99.90;;;;;;5054960;28;20235;-89
2022/04/21 07:27:38;;;;;;;15.13;12.27;;;9.90;99.90;;;;;;5058728;28;20766;-89
2022/04/21 07:30:27;;;;;;;17.83;12.40;;;9.90;99.90;;;;;;5059558;28;20233;-90
2022/04/21 07:33:18;;;;;;;14.68;12.13;;;9.80;99.90;;;;;;5068443;28;20232;-90
2022/04/21 07:36:09;;;;;;;15.30;12.75;;;9.80;99.90;;;;;;5049709;28;20212;-89
2022/04/21 07:38:58;;;;;;;14.20;12.20;;;9.90;99.90;;;;;;5056451;28;20217;-89
2022/04/21 07:41:48;;;;;;;13.03;11.10;;;9.80;99.90;;;;;;5060181;28;20219;-89
2022/04/21 07:44:43;;;;;;;13.48;11.45;;;9.80;99.90;;;;;;5069609;28;20232;-89
2022/04/21 07:47:32;;;;;;;19.90;12.80;;;9.80;99.90;;;;;;5057744;28;20231;-90
2022/04/21 07:50:24;;;;;;;15.32;12.40;;;10.00;99.90;;;;;;5069886;28;20317;-89
2022/04/21 07:53:34;;;;;;;17.98;11.77;;;10.00;99.90;;;;;;5063684;28;20239;-80
2022/04/21 07:56:23;;;;;;;17.30;11.75;;;10.00;99.90;;;;;;5047505;28;20216;-80
2022/04/21 07:59:12;;;;;;;15.02;11.65;;;10.00;99.90;;;;;;5049240;28;20223;-79
2022/04/21 08:02:01;;;;;;;16.15;12.05;;;10.10;99.90;;;;;;5045453;28;20231;-80
2022/04/21 08:04:50;;;;;;;13.85;10.90;;;10.10;99.90;;;;;;5049973;28;20224;-79
2022/04/21 08:07:40;;;;;;;13.68;11.77;;;10.10;99.90;;;;;;5061459;28;20226;-80
2022/04/21 08:10:30;;;;;;;14.82;11.60;;;10.10;99.90;;;;;;5060469;28;20252;-79
2022/04/21 08:13:20;;;;;;;14.77;10.77;;;10.10;99.90;;;;;;5038710;28;20229;-79
2022/04/21 08:16:09;;;;;;;16.70;10.63;;;10.30;99.90;;;;;;5060539;28;20223;-79
2022/04/21 08:18:59;;;;;;;14.68;11.27;;;10.30;99.90;;;;;;5045923;28;20564;-79
2022/04/21 08:21:48;;;;;;;12.82;10.50;;;10.40;99.90;;;;;;5046514;28;20239;-81
2022/04/21 08:34:22;;;;;;;15.77;12.35;;;10.40;99.90;;;;;;5062217;28;20324;-78
2022/04/21 08:37:14;;;;;;;14.80;12.20;;;10.70;99.90;;;;;;5057392;28;20231;-78
2022/04/21 08:40:03;;;;;;;15.60;11.85;;;10.90;99.90;;;;;;5057765;28;20220;-78
2022/04/21 08:42:55;;;;;;;14.75;11.00;;;11.10;99.90;;;;;;5047708;28;20220;-78
2022/04/21 08:45:45;;;;;;;12.15;10.38;;;11.10;99.90;;;;;;5061529;28;20951;-79
2022/04/21 08:48:35;;;;;;;14.98;9.82;;;11.20;99.90;;;;;;5046191;28;20247;-79
2022/04/21 08:51:28;;;;;;;15.82;10.27;;;11.50;99.90;;;;;;5064052;28;20445;-78
2022/04/21 08:54:17;;;;;;;11.40;9.50;;;11.30;99.90;;;;;;5060424;28;20590;-78
2022/04/21 08:57:06;;;;;;;16.63;10.02;;;11.30;99.90;;;;;;5044194;28;20213;-79
2022/04/21 08:59:56;;;;;;;13.05;9.38;;;11.60;99.90;;;;;;5063324;28;20717;-78
2022/04/21 09:02:48;;;;;;;11.60;9.20;;;11.60;99.90;;;;;;5045882;28;20753;-78
2022/04/21 09:05:36;;;;;;;12.63;9.63;;;11.40;99.90;;;;;;5046451;28;20223;-78
2022/04/21 09:08:28;;;;;;;14.38;9.65;;;11.70;99.90;;;;;;5062500;28;20682;-78
2022/04/21 09:11:22;;;;;;;12.50;8.93;;;11.70;99.90;;;;;;5060595;28;20240;-78
2022/04/21 09:14:16;;;;;;;12.80;9.02;;;11.90;99.90;;;;;;5061578;28;20219;-79
2022/04/21 09:17:07;;;;;;;12.57;9.48;;;11.90;99.90;;;;;;5048232;28;20297;-78
2022/04/21 09:19:57;;;;;;;11.23;8.95;;;12.00;99.90;;;;;;5052074;28;20592;-79
2022/04/21 09:22:53;;;;;;;12.93;9.27;;;12.00;99.90;;;;;;5066186;28;20212;-79
2022/04/21 09:25:48;;;;;;;12.90;9.88;;;12.20;99.90;;;;;;5051794;28;20247;-79
2022/04/21 09:28:36;;;;;;;12.60;8.95;;;12.20;99.90;;;;;;5047043;28;20223;-79
2022/04/21 09:31:27;;;;;;;12.88;9.18;;;12.10;99.90;;;;;;5062949;28;20239;-78
2022/04/21 09:34:18;;;;;;;12.38;9.75;;;12.20;99.90;;;;;;5050844;28;20241;-79
2022/04/21 09:37:07;;;;;;;13.10;10.45;;;12.00;99.90;;;;;;5057438;28;20212;-80
2022/04/21 09:39:56;;;;;;;16.15;10.45;;;12.00;99.90;;;;;;5065316;28;20215;-79
2022/04/21 09:42:54;;;;;;;15.52;11.23;;;12.00;99.90;;;;;;5048047;28;20243;-80
2022/04/21 09:48:53;;;;;;;16.33;10.10;;;12.10;99.90;;;;;;5064838;28;20220;-78
2022/04/21 09:51:45;;;;;;;10.45;8.75;;;12.20;99.90;;;;;;5063266;28;20823;-78
2022/04/21 09:54:35;;;;;;;12.18;8.25;;;12.20;99.90;;;;;;5050500;28;20683;-78
2022/04/21 09:57:31;;;;;;;11.63;8.27;;;12.20;99.90;;;;;;5049754;28;20232;-78
2022/04/21 10:00:22;;;;;;;11.35;8.30;;;12.20;99.90;;;;;;5061839;28;20259;-77
2022/04/21 10:03:12;;;;;;;11.48;8.40;;;12.20;99.90;;;;;;5049815;28;20293;-77
2022/04/21 10:06:01;;;;;;;12.52;8.55;;;12.20;99.90;;;;;;5064463;28;20705;-78
2022/04/21 10:08:52;;;;;;;9.93;8.50;;;12.30;99.90;;;;;;5064144;28;20228;-77
2022/04/21 10:11:42;;;;;;;10.20;8.20;;;12.30;99.90;;;;;;5063354;28;20227;-78
2022/04/21 10:14:32;;;;;;;14.45;8.60;;;12.40;99.90;;;;;;5063285;28;20267;-78
2022/04/21 10:17:21;;;;;;;11.43;8.10;;;12.30;99.90;;;;;;5066711;28;20293;-78
2022/04/21 10:20:10;;;;;;;10.93;7.93;;;12.40;99.90;;;;;;5047286;28;20232;-78
2022/04/21 10:23:01;;;;;;;9.23;7.40;;;12.40;99.90;;;;;;5062067;28;20228;-77
2022/04/21 10:26:01;;;;;;;10.32;8.13;;;12.50;99.90;;;;;;5051723;28;20220;-77
2022/04/21 10:29:14;;;;;;;12.48;9.13;;;12.40;99.90;;;;;;5064211;28;20220;-78
2022/04/21 10:32:04;;;;;;;11.98;8.48;;;12.60;99.90;;;;;;5044961;28;20244;-78
2022/04/21 10:34:56;;;;;;;10.40;8.50;;;12.70;99.90;;;;;;5063017;28;20299;-78
2022/04/21 10:37:45;;;;;;;12.52;7.60;;;12.70;99.90;;;;;;5063277;28;20250;-78
2022/04/21 10:40:33;;;;;;;10.68;8.23;;;12.80;99.90;;;;;;5048743;28;20220;-78
2022/04/21 10:43:23;;;;;;;8.57;7.57;;;12.80;99.90;;;;;;5060158;28;20235;-77
2022/04/21 10:46:19;;;;;;;9.80;8.07;;;12.90;99.90;;;;;;5062673;28;20983;-77
2022/04/21 10:49:09;;;;;;;12.90;8.23;;;13.00;99.90;;;;;;5059881;28;20306;-78
2022/04/21 10:58:52;;;;;;;12.30;8.68;;;13.40;99.90;;;;;;5057452;28;20219;-78
2022/04/21 11:01:53;;;;;;;10.93;7.65;;;13.30;99.90;;;;;;5061073;28;20216;-78
2022/04/21 11:04:42;;;;;;;10.63;7.65;;;13.10;99.90;;;;;;5064649;28;20238;-77
2022/04/21 11:07:50;;;;;;;8.68;7.28;;;13.10;99.90;;;;;;5062195;28;20307;-78
2022/04/21 11:10:43;;;;;;;7.82;6.90;;;13.30;99.90;;;;;;5059784;28;20529;-78
2022/04/21 11:13:43;;;;;;;10.15;7.13;;;13.30;99.90;;;;;;5062841;28;20224;-77
2022/04/21 11:16:48;;;;;;;10.43;6.97;;;13.40;99.90;;;;;;5060219;28;20239;-77
2022/04/21 11:19:44;;;;;;;10.50;7.05;;;13.70;99.90;;;;;;5065116;28;20710;-77
2022/04/21 11:22:40;;;;;;;8.43;7.10;;;14.10;99.90;;;;;;5067660;28;20330;-78
2022/04/21 11:25:33;;;;;;;9.25;7.22;;;14.40;99.90;;;;;;5073874;28;20228;-79
2022/04/21 11:28:25;;;;;;;10.18;7.22;;;14.60;99.90;;;;;;5072886;28;20731;-77
2022/04/21 11:31:15;;;;;;;10.90;7.55;;;14.30;99.90;;;;;;5063993;28;20350;-77
2022/04/21 11:34:05;;;;;;;11.95;7.65;;;13.90;99.90;;;;;;5063344;28;20216;-77
2022/04/21 11:36:56;;;;;;;10.93;8.10;;;13.80;99.90;;;;;;5047791;28;20216;-77
2022/04/21 11:39:46;;;;;;;12.45;8.10;;;13.90;99.90;;;;;;5058893;28;21264;-77
2022/04/21 11:42:39;;;;;;;10.93;7.30;;;14.00;99.90;;;;;;5066344;28;20721;-77
2022/04/21 11:45:30;;;;;;;8.48;7.35;;;14.10;99.90;;;;;;5064135;28;20228;-78
2022/04/21 11:48:19;;;;;;;15.10;7.80;;;14.10;99.90;;;;;;5049149;28;20224;-77
2022/04/21 11:51:11;;;;;;;12.13;7.63;;;13.90;99.90;;;;;;5060879;28;20227;-77
2022/04/21 11:54:04;;;;;;;10.90;7.18;;;13.90;99.90;;;;;;5049187;28;20415;-80
2022/04/21 11:56:53;;;;;;;11.23;6.60;;;13.80;99.90;;;;;;5062227;28;20354;-87
2022/04/21 11:59:43;;;;;;;9.63;7.20;;;13.80;99.90;;;;;;5061825;28;20220;-80
2022/04/21 12:08:57;;;;;;;11.23;6.90;;;13.90;99.90;;;;;;5062832;28;20308;-77
2022/04/21 12:11:49;;;;;;;10.43;7.22;;;14.00;99.90;;;;;;5059289;28;20220;-78
2022/04/21 12:14:41;;;;;;;10.18;6.75;;;14.00;99.90;;;;;;5058487;28;20219;-77
2022/04/21 12:17:33;;;;;;;9.98;7.22;;;13.90;99.90;;;;;;5062147;28;20220;-79
2022/04/21 12:20:22;;;;;;;9.77;6.80;;;13.90;99.90;;;;;;5064038;28;20251;-77
2022/04/21 12:23:22;;;;;;;12.00;7.47;;;13.80;99.90;;;;;;5051382;28;20220;-78
2022/04/21 12:26:12;;;;;;;12.95;7.63;;;13.90;99.90;;;;;;5060556;28;20224;-78
2022/04/21 12:29:01;;;;;;;9.80;7.13;;;14.20;99.90;;;;;;5061432;28;20361;-78
2022/04/21 12:31:52;;;;;;;13.43;7.82;;;14.20;99.90;;;;;;5062390;28;20756;-78
2022/04/21 12:34:41;;;;;;;10.32;7.70;;;14.40;99.90;;;;;;5063923;28;20227;-79
2022/04/21 12:37:31;;;;;;;10.43;7.25;;;14.50;99.90;;;;;;5061927;28;20220;-78
2022/04/21 12:40:20;;;;;;;15.52;7.80;;;14.50;99.90;;;;;;5061220;28;20228;-78
2022/04/21 12:43:12;;;;;;;11.73;7.95;;;14.60;99.90;;;;;;5060153;28;20224;-78
2022/04/21 12:46:02;;;;;;;8.77;7.18;;;14.50;99.90;;;;;;5059756;28;20216;-79
2022/04/21 12:48:51;;;;;;;9.45;7.32;;;14.30;99.90;;;;;;5049788;28;20339;-80
2022/04/21 12:51:49;;;;;;;8.82;7.20;;;14.20;99.90;;;;;;5050145;28;20247;-79
2022/04/21 12:54:38;;;;;;;9.48;7.85;;;14.30;99.90;;;;;;5045343;28;20597;-78
2022/04/21 12:57:27;;;;;;;13.10;7.63;;;14.30;99.90;;;;;;5061915;28;20781;-80
2022/04/21 13:00:18;;;;;;;8.60;7.13;;;14.20;99.90;;;;;;5049998;28;20232;-78
2022/04/21 13:03:08;;;;;;;10.82;7.55;;;14.10;99.90;;;;;;5060597;28;20212;-78
2022/04/21 13:05:59;;;;;;;12.02;7.30;;;14.40;99.90;;;;;;5059585;28;20225;-80
2022/04/21 13:08:48;;;;;;;14.70;7.43;;;14.20;99.90;;;;;;5049870;28;20228;-78
2022/04/21 13:11:36;;;;;;;11.93;7.68;;;14.20;99.90;;;;;;5049151;28;20235;-78
2022/04/21 13:14:25;;;;;;;13.88;8.02;;;14.10;99.90;;;;;;5048045;28;20224;-78
2022/04/21 13:17:17;;;;;;;15.50;7.65;;;14.00;99.90;;;;;;5062131;28;20220;-79
2022/04/21 13:20:09;;;;;;;12.75;7.40;;;14.10;99.90;;;;;;5048708;28;20552;-78
2022/04/21 13:22:56;;;;;;;11.07;6.88;;;14.10;99.90;;;;;;5056362;28;20223;-78
2022/04/21 13:25:45;;;;;;;10.00;7.28;;;14.10;99.90;;;;;;5050271;28;20223;-77
2022/04/21 13:28:35;;;;;;;10.25;7.28;;;14.20;99.90;;;;;;5046941;28;20239;-78
2022/04/21 13:34:31;;;;;;;10.60;7.60;;;13.90;99.90;;;;;;5045229;28;20216;-78
2022/04/21 13:37:19;;;;;;;10.70;7.88;;;14.20;99.90;;;;;;5049378;28;20224;-78
2022/04/21 13:40:09;;;;;;;11.68;7.70;;;14.20;99.90;;;;;;5045754;28;20209;-78
2022/04/21 13:42:57;;;;;;;11.13;7.60;;;14.10;99.90;;;;;;5063459;28;20216;-78
2022/04/21 13:46:06;;;;;;;11.13;7.43;;;14.00;99.90;;;;;;5058591;28;20226;-78
2022/04/21 13:48:57;;;;;;;11.93;7.97;;;13.80;99.90;;;;;;5062523;28;20222;-79
2022/04/21 13:51:48;;;;;;;9.68;7.95;;;13.90;99.90;;;;;;5060455;28;20281;-81
2022/04/21 13:54:41;;;;;;;13.13;8.18;;;13.80;99.90;;;;;;5077569;28;20227;-82
2022/04/21 13:57:29;;;;;;;9.93;7.80;;;13.70;99.90;;;;;;5072874;28;20256;-82
2022/04/21 14:00:24;;;;;;;11.07;7.80;;;13.60;99.90;;;;;;5063809;28;20598;-82
2022/04/21 14:03:13;;;;;;;11.90;8.10;;;13.40;99.90;;;;;;5057856;28;20331;-83
2022/04/21 14:06:02;;;;;;;11.30;8.25;;;13.50;99.90;;;;;;5070730;28;20219;-82
2022/04/21 14:08:56;;;;;;;11.20;7.60;;;13.50;99.90;;;;;;5056432;28;20231;-82
2022/04/21 14:11:45;;;;;;;12.25;8.20;;;13.50;99.90;;;;;;5056035;28;20320;-83
2022/04/21 14:14:34;;;;;;;10.38;7.65;;;13.50;99.90;;;;;;5069429;28;20642;-83
2022/04/21 14:17:24;;;;;;;10.25;6.78;;;13.50;99.90;;;;;;5056391;28;20228;-83
2022/04/21 14:20:13;;;;;;;13.00;7.25;;;13.40;99.90;;;;;;5068918;28;20239;-84
2022/04/21 14:23:03;;;;;;;9.95;6.90;;;13.30;99.90;;;;;;5068023;28;20313;-84
2022/04/21 14:25:53;;;;;;;9.73;7.55;;;13.50;99.90;;;;;;5058549;28;20228;-83
2022/04/21 14:28:47;;;;;;;13.00;7.03;;;13.50;99.90;;;;;;5051707;28;20213;-83
2022/04/21 14:31:36;;;;;;;10.43;7.28;;;13.40;99.90;;;;;;5065133;28;20303;-83
2022/04/21 14:34:25;;;;;;;8.00;6.80;;;13.50;99.90;;;;;;5079222;28;20228;-83
2022/04/21 14:44:03;;;;;;;10.25;7.38;;;13.40;99.90;;;;;;5068599;28;20245;-83
2022/04/21 14:46:39;;;;;;;12.80;7.68;;;13.30;99.90;;;;;;5072232;28;20232;-84
2022/04/21 14:49:48;;;;;;;12.18;7.50;;;13.20;99.90;;;;;;5062960;28;20208;-83
2022/04/21 14:52:37;;;;;;;11.80;8.20;;;13.10;99.90;;;;;;5063029;28;20313;-84
2022/04/21 14:55:27;;;;;;;10.40;8.25;;;13.00;99.90;;;;;;5075381;28;20709;-84
2022/04/21 14:58:17;;;;;;;11.95;8.38;;;13.10;99.90;;;;;;5071032;28;20254;-83
2022/04/21 15:01:07;;;;;;;12.55;8.13;;;13.20;99.90;;;;;;5070923;28;20224;-84
2022/04/21 15:03:56;;;;;;;11.38;8.32;;;13.30;99.90;;;;;;5061188;28;20342;-83
2022/04/21 15:06:48;;;;;;;12.18;7.97;;;13.10;99.90;;;;;;5065707;28;20217;-84
2022/04/21 15:09:37;;;;;;;11.30;8.07;;;13.10;99.90;;;;;;5071107;28;20224;-84
2022/04/21 15:12:26;;;;;;;12.93;9.40;;;13.20;99.90;;;;;;5070107;28;20228;-84
2022/04/21 15:15:15;;;;;;;10.85;8.35;;;13.10;99.90;;;;;;5069195;28;20228;-84
2022/04/21 15:18:06;;;;;;;13.00;8.75;;;13.00;99.90;;;;;;5066858;28;20220;-86
2022/04/21 15:20:57;;;;;;;13.77;9.52;;;13.00;99.90;;;;;;5069579;28;20350;-91
2022/04/21 15:23:46;;;;;;;12.85;9.40;;;13.00;99.90;;;;;;5073887;28;20336;-90
2022/04/21 15:26:35;;;;;;;13.73;9.18;;;13.00;99.90;;;;;;5054380;28;20232;-90
2022/04/21 15:29:26;;;;;;;12.75;9.57;;;13.00;99.90;;;;;;5068899;28;20270;-89
2022/04/21 15:32:15;;;;;;;16.55;9.43;;;12.90;99.90;;;;;;5074027;28;20227;-89